sensor_id;sensor_type;location;lat;lon;timestamp;P1;durP1;ratioP1;P2;durP2;ratioP2
37791;SDS011;29527;55.766;37.570;2022-11-09T00:01:28;24.13;;;15.55;;
37791;SDS011;29527;55.766;37.570;2022-11-09T00:03:58;24.83;;;15.02;;
37791;SDS011;29527;55.766;37.570;2022-11-09T00:06:25;26.83;;;16.10;;
37791;SDS011;29527;55.766;37.570;2022-11-09T00:08:52;24.13;;;14.85;;
37791;SDS011;29527;55.766;37.570;2022-11-09T00:11:17;30.17;;;15.48;;
37791;SDS011;29527;55.766;37.570;2022-11-09T00:13:43;26.27;;;15.38;;
37791;SDS011;29527;55.766;37.570;2022-11-09T00:16:10;25.77;;;15.75;;
37791;SDS011;29527;55.766;37.570;2022-11-09T00:18:38;29.25;;;15.13;;
37791;SDS011;29527;55.766;37.570;2022-11-09T00:21:08;29.20;;;15.95;;
37791;SDS011;29527;55.766;37.570;2022-11-09T00:23:35;26.05;;;15.95;;
37791;SDS011;29527;55.766;37.570;2022-11-09T00:26:04;26.83;;;15.05;;
37791;SDS011;29527;55.766;37.570;2022-11-09T00:28:31;26.95;;;15.88;;
37791;SDS011;29527;55.766;37.570;2022-11-09T00:30:58;25.08;;;14.30;;
37791;SDS011;29527;55.766;37.570;2022-11-09T00:33:24;26.48;;;15.25;;
37791;SDS011;29527;55.766;37.570;2022-11-09T00:35:50;24.25;;;14.98;;
37791;SDS011;29527;55.766;37.570;2022-11-09T00:38:16;24.98;;;15.27;;
37791;SDS011;29527;55.766;37.570;2022-11-09T00:40:41;23.00;;;14.30;;
37791;SDS011;29527;55.766;37.570;2022-11-09T00:43:06;26.10;;;16.10;;
37791;SDS011;29527;55.766;37.570;2022-11-09T00:45:32;28.15;;;15.98;;
37791;SDS011;29527;55.766;37.570;2022-11-09T00:47:57;23.80;;;15.00;;
37791;SDS011;29527;55.766;37.570;2022-11-09T00:50:23;25.95;;;15.77;;
37791;SDS011;29527;55.766;37.570;2022-11-09T00:52:48;24.48;;;15.40;;
37791;SDS011;29527;55.766;37.570;2022-11-09T00:55:14;25.85;;;16.17;;
37791;SDS011;29527;55.766;37.570;2022-11-09T00:57:39;24.27;;;15.48;;
37791;SDS011;29527;55.766;37.570;2022-11-09T01:00:05;27.55;;;16.27;;
37791;SDS011;29527;55.766;37.570;2022-11-09T01:02:31;26.83;;;16.80;;
37791;SDS011;29527;55.766;37.570;2022-11-09T01:04:56;25.23;;;15.93;;
37791;SDS011;29527;55.766;37.570;2022-11-09T01:07:22;24.48;;;15.20;;
37791;SDS011;29527;55.766;37.570;2022-11-09T01:09:47;28.48;;;17.23;;
37791;SDS011;29527;55.766;37.570;2022-11-09T01:12:13;26.42;;;16.88;;
37791;SDS011;29527;55.766;37.570;2022-11-09T01:14:38;27.48;;;16.55;;
37791;SDS011;29527;55.766;37.570;2022-11-09T01:17:04;25.48;;;15.95;;
37791;SDS011;29527;55.766;37.570;2022-11-09T01:19:29;25.15;;;16.35;;
37791;SDS011;29527;55.766;37.570;2022-11-09T01:21:54;26.33;;;16.67;;
37791;SDS011;29527;55.766;37.570;2022-11-09T01:24:20;26.65;;;16.50;;
37791;SDS011;29527;55.766;37.570;2022-11-09T01:26:45;28.42;;;17.45;;
37791;SDS011;29527;55.766;37.570;2022-11-09T01:29:11;26.45;;;16.73;;
37791;SDS011;29527;55.766;37.570;2022-11-09T01:31:36;27.95;;;17.08;;
37791;SDS011;29527;55.766;37.570;2022-11-09T01:34:02;30.00;;;17.38;;
37791;SDS011;29527;55.766;37.570;2022-11-09T01:36:27;28.52;;;17.00;;
37791;SDS011;29527;55.766;37.570;2022-11-09T01:38:52;28.77;;;17.25;;
37791;SDS011;29527;55.766;37.570;2022-11-09T01:41:27;28.48;;;17.17;;
37791;SDS011;29527;55.766;37.570;2022-11-09T01:44:13;26.63;;;17.13;;
37791;SDS011;29527;55.766;37.570;2022-11-09T01:49:48;30.38;;;17.35;;
37791;SDS011;29527;55.766;37.570;2022-11-09T01:52:26;29.38;;;17.58;;
37791;SDS011;29527;55.766;37.570;2022-11-09T01:54:57;27.95;;;17.40;;
37791;SDS011;29527;55.766;37.570;2022-11-09T01:57:27;28.58;;;17.75;;
37791;SDS011;29527;55.766;37.570;2022-11-09T01:59:58;30.75;;;17.88;;
37791;SDS011;29527;55.766;37.570;2022-11-09T02:02:29;29.45;;;17.05;;
37791;SDS011;29527;55.766;37.570;2022-11-09T02:04:59;27.17;;;16.70;;
37791;SDS011;29527;55.766;37.570;2022-11-09T02:07:28;30.60;;;18.13;;
37791;SDS011;29527;55.766;37.570;2022-11-09T02:09:57;28.52;;;17.42;;
37791;SDS011;29527;55.766;37.570;2022-11-09T02:12:30;28.27;;;16.55;;
37791;SDS011;29527;55.766;37.570;2022-11-09T02:14:58;25.58;;;17.20;;
37791;SDS011;29527;55.766;37.570;2022-11-09T02:17:29;34.55;;;17.75;;
37791;SDS011;29527;55.766;37.570;2022-11-09T02:19:58;28.80;;;17.20;;
37791;SDS011;29527;55.766;37.570;2022-11-09T02:22:24;26.90;;;17.40;;
37791;SDS011;29527;55.766;37.570;2022-11-09T02:24:50;29.13;;;17.73;;
37791;SDS011;29527;55.766;37.570;2022-11-09T02:27:16;28.75;;;17.08;;
37791;SDS011;29527;55.766;37.570;2022-11-09T02:29:43;27.02;;;15.95;;
37791;SDS011;29527;55.766;37.570;2022-11-09T02:32:16;23.30;;;15.63;;
37791;SDS011;29527;55.766;37.570;2022-11-09T02:34:44;27.05;;;16.55;;
37791;SDS011;29527;55.766;37.570;2022-11-09T02:37:10;26.02;;;16.73;;
37791;SDS011;29527;55.766;37.570;2022-11-09T02:39:35;26.85;;;16.20;;
37791;SDS011;29527;55.766;37.570;2022-11-09T02:42:03;27.00;;;16.08;;
37791;SDS011;29527;55.766;37.570;2022-11-09T02:44:39;24.42;;;14.32;;
37791;SDS011;29527;55.766;37.570;2022-11-09T02:47:07;21.70;;;14.13;;
37791;SDS011;29527;55.766;37.570;2022-11-09T02:49:33;24.50;;;14.32;;
37791;SDS011;29527;55.766;37.570;2022-11-09T02:51:58;24.77;;;14.55;;
37791;SDS011;29527;55.766;37.570;2022-11-09T02:54:23;21.13;;;13.30;;
37791;SDS011;29527;55.766;37.570;2022-11-09T02:56:49;23.10;;;13.63;;
37791;SDS011;29527;55.766;37.570;2022-11-09T02:59:14;21.30;;;13.27;;
37791;SDS011;29527;55.766;37.570;2022-11-09T03:01:40;20.60;;;13.10;;
37791;SDS011;29527;55.766;37.570;2022-11-09T03:04:05;19.35;;;13.15;;
37791;SDS011;29527;55.766;37.570;2022-11-09T03:06:31;20.65;;;12.73;;
37791;SDS011;29527;55.766;37.570;2022-11-09T03:09:06;22.70;;;14.00;;
37791;SDS011;29527;55.766;37.570;2022-11-09T03:11:36;20.17;;;13.10;;
37791;SDS011;29527;55.766;37.570;2022-11-09T03:14:02;20.05;;;12.65;;
37791;SDS011;29527;55.766;37.570;2022-11-09T03:16:28;22.05;;;13.40;;
37791;SDS011;29527;55.766;37.570;2022-11-09T03:18:54;22.30;;;13.23;;
37791;SDS011;29527;55.766;37.570;2022-11-09T03:21:19;21.75;;;12.43;;
37791;SDS011;29527;55.766;37.570;2022-11-09T03:23:46;21.55;;;13.45;;
37791;SDS011;29527;55.766;37.570;2022-11-09T03:26:12;20.02;;;12.63;;
37791;SDS011;29527;55.766;37.570;2022-11-09T03:28:38;20.42;;;12.30;;
37791;SDS011;29527;55.766;37.570;2022-11-09T03:31:03;23.02;;;13.35;;
37791;SDS011;29527;55.766;37.570;2022-11-09T03:33:29;21.88;;;13.15;;
37791;SDS011;29527;55.766;37.570;2022-11-09T03:35:55;20.80;;;12.95;;
37791;SDS011;29527;55.766;37.570;2022-11-09T03:38:20;20.48;;;12.70;;
37791;SDS011;29527;55.766;37.570;2022-11-09T03:40:46;20.95;;;13.20;;
37791;SDS011;29527;55.766;37.570;2022-11-09T03:43:11;18.35;;;11.98;;
37791;SDS011;29527;55.766;37.570;2022-11-09T03:45:37;17.15;;;11.82;;
37791;SDS011;29527;55.766;37.570;2022-11-09T03:48:02;19.70;;;12.63;;
37791;SDS011;29527;55.766;37.570;2022-11-09T03:50:29;19.50;;;12.85;;
37791;SDS011;29527;55.766;37.570;2022-11-09T03:52:56;18.08;;;11.93;;
37791;SDS011;29527;55.766;37.570;2022-11-09T03:55:24;17.27;;;11.50;;
37791;SDS011;29527;55.766;37.570;2022-11-09T03:57:50;20.42;;;12.10;;
37791;SDS011;29527;55.766;37.570;2022-11-09T04:00:16;18.95;;;11.68;;
37791;SDS011;29527;55.766;37.570;2022-11-09T04:02:43;17.92;;;11.43;;
37791;SDS011;29527;55.766;37.570;2022-11-09T04:05:09;21.23;;;12.60;;
37791;SDS011;29527;55.766;37.570;2022-11-09T04:07:35;18.13;;;11.40;;
37791;SDS011;29527;55.766;37.570;2022-11-09T04:10:02;19.88;;;12.63;;
37791;SDS011;29527;55.766;37.570;2022-11-09T04:12:28;17.73;;;12.18;;
37791;SDS011;29527;55.766;37.570;2022-11-09T04:14:54;18.73;;;11.95;;
37791;SDS011;29527;55.766;37.570;2022-11-09T04:17:19;18.10;;;11.95;;
37791;SDS011;29527;55.766;37.570;2022-11-09T04:19:45;18.35;;;11.95;;
37791;SDS011;29527;55.766;37.570;2022-11-09T04:22:10;18.42;;;12.32;;
37791;SDS011;29527;55.766;37.570;2022-11-09T04:24:35;15.45;;;11.40;;
37791;SDS011;29527;55.766;37.570;2022-11-09T04:27:01;26.42;;;14.85;;
37791;SDS011;29527;55.766;37.570;2022-11-09T04:29:26;19.25;;;12.55;;
37791;SDS011;29527;55.766;37.570;2022-11-09T04:31:52;21.08;;;11.80;;
37791;SDS011;29527;55.766;37.570;2022-11-09T04:34:17;16.65;;;11.50;;
37791;SDS011;29527;55.766;37.570;2022-11-09T04:36:43;18.77;;;12.63;;
37791;SDS011;29527;55.766;37.570;2022-11-09T04:39:08;17.63;;;12.30;;
37791;SDS011;29527;55.766;37.570;2022-11-09T04:41:34;18.52;;;12.85;;
37791;SDS011;29527;55.766;37.570;2022-11-09T04:44:00;17.95;;;12.38;;
37791;SDS011;29527;55.766;37.570;2022-11-09T04:46:26;20.33;;;12.52;;
37791;SDS011;29527;55.766;37.570;2022-11-09T04:48:52;17.23;;;11.48;;
37791;SDS011;29527;55.766;37.570;2022-11-09T04:51:17;19.40;;;12.77;;
37791;SDS011;29527;55.766;37.570;2022-11-09T04:53:43;18.10;;;12.73;;
37791;SDS011;29527;55.766;37.570;2022-11-09T04:56:09;18.85;;;11.95;;
37791;SDS011;29527;55.766;37.570;2022-11-09T04:58:35;16.70;;;11.85;;
37791;SDS011;29527;55.766;37.570;2022-11-09T05:01:04;20.98;;;13.02;;
37791;SDS011;29527;55.766;37.570;2022-11-09T05:03:31;17.15;;;12.23;;
37791;SDS011;29527;55.766;37.570;2022-11-09T05:05:56;20.55;;;12.00;;
37791;SDS011;29527;55.766;37.570;2022-11-09T05:08:22;18.58;;;11.95;;
37791;SDS011;29527;55.766;37.570;2022-11-09T05:10:47;17.75;;;12.80;;
37791;SDS011;29527;55.766;37.570;2022-11-09T05:13:13;18.40;;;12.75;;
37791;SDS011;29527;55.766;37.570;2022-11-09T05:15:39;16.65;;;12.15;;
37791;SDS011;29527;55.766;37.570;2022-11-09T05:18:05;18.77;;;12.43;;
37791;SDS011;29527;55.766;37.570;2022-11-09T05:20:32;20.10;;;13.75;;
37791;SDS011;29527;55.766;37.570;2022-11-09T05:22:58;24.17;;;13.68;;
37791;SDS011;29527;55.766;37.570;2022-11-09T05:25:43;18.20;;;12.90;;
37791;SDS011;29527;55.766;37.570;2022-11-09T05:28:09;19.42;;;13.40;;
37791;SDS011;29527;55.766;37.570;2022-11-09T05:30:35;16.92;;;12.57;;
37791;SDS011;29527;55.766;37.570;2022-11-09T05:33:00;19.77;;;12.98;;
37791;SDS011;29527;55.766;37.570;2022-11-09T05:35:26;17.80;;;12.80;;
37791;SDS011;29527;55.766;37.570;2022-11-09T05:37:51;20.52;;;13.52;;
37791;SDS011;29527;55.766;37.570;2022-11-09T05:40:17;20.85;;;12.57;;
37791;SDS011;29527;55.766;37.570;2022-11-09T05:42:44;22.08;;;12.60;;
37791;SDS011;29527;55.766;37.570;2022-11-09T05:45:11;20.17;;;13.18;;
37791;SDS011;29527;55.766;37.570;2022-11-09T05:47:39;17.05;;;12.52;;
37791;SDS011;29527;55.766;37.570;2022-11-09T05:50:10;17.50;;;12.40;;
37791;SDS011;29527;55.766;37.570;2022-11-09T05:52:38;16.25;;;12.02;;
37791;SDS011;29527;55.766;37.570;2022-11-09T05:55:04;16.75;;;12.38;;
37791;SDS011;29527;55.766;37.570;2022-11-09T05:57:30;16.48;;;11.75;;
37791;SDS011;29527;55.766;37.570;2022-11-09T05:59:56;17.30;;;12.00;;
37791;SDS011;29527;55.766;37.570;2022-11-09T06:02:21;19.08;;;11.77;;
37791;SDS011;29527;55.766;37.570;2022-11-09T06:04:48;18.38;;;12.00;;
37791;SDS011;29527;55.766;37.570;2022-11-09T06:07:13;16.95;;;11.75;;
37791;SDS011;29527;55.766;37.570;2022-11-09T06:09:39;20.05;;;13.02;;
37791;SDS011;29527;55.766;37.570;2022-11-09T06:12:05;15.68;;;12.00;;
37791;SDS011;29527;55.766;37.570;2022-11-09T06:14:30;17.55;;;12.63;;
37791;SDS011;29527;55.766;37.570;2022-11-09T06:16:56;16.92;;;12.30;;
37791;SDS011;29527;55.766;37.570;2022-11-09T06:19:21;19.67;;;11.85;;
37791;SDS011;29527;55.766;37.570;2022-11-09T06:21:47;17.63;;;13.15;;
37791;SDS011;29527;55.766;37.570;2022-11-09T06:24:12;17.55;;;12.20;;
37791;SDS011;29527;55.766;37.570;2022-11-09T06:26:37;18.17;;;12.38;;
37791;SDS011;29527;55.766;37.570;2022-11-09T06:29:03;19.17;;;12.77;;
37791;SDS011;29527;55.766;37.570;2022-11-09T06:31:29;19.42;;;11.80;;
37791;SDS011;29527;55.766;37.570;2022-11-09T06:33:54;18.08;;;12.60;;
37791;SDS011;29527;55.766;37.570;2022-11-09T06:36:20;18.23;;;11.93;;
37791;SDS011;29527;55.766;37.570;2022-11-09T06:38:49;20.20;;;12.05;;
37791;SDS011;29527;55.766;37.570;2022-11-09T06:41:15;20.52;;;13.70;;
37791;SDS011;29527;55.766;37.570;2022-11-09T06:43:41;17.15;;;10.73;;
37791;SDS011;29527;55.766;37.570;2022-11-09T06:46:07;16.58;;;11.15;;
37791;SDS011;29527;55.766;37.570;2022-11-09T06:48:35;16.60;;;11.75;;
37791;SDS011;29527;55.766;37.570;2022-11-09T06:51:02;18.35;;;12.50;;
37791;SDS011;29527;55.766;37.570;2022-11-09T06:53:28;18.52;;;12.85;;
37791;SDS011;29527;55.766;37.570;2022-11-09T06:55:56;18.23;;;11.90;;
37791;SDS011;29527;55.766;37.570;2022-11-09T06:58:25;21.33;;;13.23;;
37791;SDS011;29527;55.766;37.570;2022-11-09T07:00:51;18.95;;;13.27;;
37791;SDS011;29527;55.766;37.570;2022-11-09T07:03:17;21.77;;;13.25;;
37791;SDS011;29527;55.766;37.570;2022-11-09T07:05:44;19.88;;;13.30;;
37791;SDS011;29527;55.766;37.570;2022-11-09T07:08:11;22.00;;;12.93;;
37791;SDS011;29527;55.766;37.570;2022-11-09T07:10:38;22.77;;;13.10;;
37791;SDS011;29527;55.766;37.570;2022-11-09T07:13:04;27.35;;;13.65;;
37791;SDS011;29527;55.766;37.570;2022-11-09T07:15:30;22.75;;;12.85;;
37791;SDS011;29527;55.766;37.570;2022-11-09T07:17:56;18.58;;;12.35;;
37791;SDS011;29527;55.766;37.570;2022-11-09T07:20:26;20.02;;;12.27;;
37791;SDS011;29527;55.766;37.570;2022-11-09T07:22:52;23.45;;;12.52;;
37791;SDS011;29527;55.766;37.570;2022-11-09T07:25:18;16.33;;;11.18;;
37791;SDS011;29527;55.766;37.570;2022-11-09T07:27:44;22.40;;;11.65;;
37791;SDS011;29527;55.766;37.570;2022-11-09T07:30:10;17.85;;;10.95;;
37791;SDS011;29527;55.766;37.570;2022-11-09T07:32:36;19.00;;;11.23;;
37791;SDS011;29527;55.766;37.570;2022-11-09T07:35:03;16.42;;;11.13;;
37791;SDS011;29527;55.766;37.570;2022-11-09T07:37:29;17.73;;;11.35;;
37791;SDS011;29527;55.766;37.570;2022-11-09T07:39:55;20.95;;;11.82;;
37791;SDS011;29527;55.766;37.570;2022-11-09T07:42:21;21.48;;;11.70;;
37791;SDS011;29527;55.766;37.570;2022-11-09T07:44:47;14.90;;;10.27;;
37791;SDS011;29527;55.766;37.570;2022-11-09T07:47:13;18.92;;;10.85;;
37791;SDS011;29527;55.766;37.570;2022-11-09T07:49:40;18.45;;;12.13;;
37791;SDS011;29527;55.766;37.570;2022-11-09T07:52:06;22.20;;;13.55;;
37791;SDS011;29527;55.766;37.570;2022-11-09T07:54:31;20.15;;;13.52;;
37791;SDS011;29527;55.766;37.570;2022-11-09T07:56:56;21.75;;;12.48;;
37791;SDS011;29527;55.766;37.570;2022-11-09T07:59:22;17.80;;;11.52;;
37791;SDS011;29527;55.766;37.570;2022-11-09T08:01:47;18.48;;;11.90;;
37791;SDS011;29527;55.766;37.570;2022-11-09T08:04:13;19.98;;;11.73;;
37791;SDS011;29527;55.766;37.570;2022-11-09T08:06:38;21.10;;;11.85;;
37791;SDS011;29527;55.766;37.570;2022-11-09T08:09:04;20.45;;;12.35;;
37791;SDS011;29527;55.766;37.570;2022-11-09T08:11:29;19.52;;;12.70;;
37791;SDS011;29527;55.766;37.570;2022-11-09T08:13:55;20.95;;;12.77;;
37791;SDS011;29527;55.766;37.570;2022-11-09T08:16:21;20.65;;;12.88;;
37791;SDS011;29527;55.766;37.570;2022-11-09T08:18:48;18.98;;;12.55;;
37791;SDS011;29527;55.766;37.570;2022-11-09T08:21:14;19.90;;;12.32;;
37791;SDS011;29527;55.766;37.570;2022-11-09T08:23:39;23.73;;;13.68;;
37791;SDS011;29527;55.766;37.570;2022-11-09T08:26:05;21.05;;;13.02;;
37791;SDS011;29527;55.766;37.570;2022-11-09T08:28:31;21.27;;;13.23;;
37791;SDS011;29527;55.766;37.570;2022-11-09T08:30:59;19.63;;;12.90;;
37791;SDS011;29527;55.766;37.570;2022-11-09T08:33:28;22.33;;;14.00;;
37791;SDS011;29527;55.766;37.570;2022-11-09T08:35:54;20.33;;;12.80;;
37791;SDS011;29527;55.766;37.570;2022-11-09T08:38:20;19.08;;;12.20;;
37791;SDS011;29527;55.766;37.570;2022-11-09T08:40:46;17.50;;;12.43;;
37791;SDS011;29527;55.766;37.570;2022-11-09T08:43:12;21.27;;;12.52;;
37791;SDS011;29527;55.766;37.570;2022-11-09T08:45:39;15.05;;;10.63;;
37791;SDS011;29527;55.766;37.570;2022-11-09T08:48:05;17.88;;;11.50;;
37791;SDS011;29527;55.766;37.570;2022-11-09T08:50:32;20.45;;;10.98;;
37791;SDS011;29527;55.766;37.570;2022-11-09T08:53:00;20.60;;;11.65;;
37791;SDS011;29527;55.766;37.570;2022-11-09T08:55:26;18.05;;;10.73;;
37791;SDS011;29527;55.766;37.570;2022-11-09T08:57:52;16.17;;;11.02;;
37791;SDS011;29527;55.766;37.570;2022-11-09T09:00:20;14.30;;;10.15;;
37791;SDS011;29527;55.766;37.570;2022-11-09T09:02:45;16.77;;;10.65;;
37791;SDS011;29527;55.766;37.570;2022-11-09T09:05:11;14.38;;;10.38;;
37791;SDS011;29527;55.766;37.570;2022-11-09T09:07:36;16.85;;;10.25;;
37791;SDS011;29527;55.766;37.570;2022-11-09T09:10:02;17.42;;;10.75;;
37791;SDS011;29527;55.766;37.570;2022-11-09T09:12:29;14.75;;;10.27;;
37791;SDS011;29527;55.766;37.570;2022-11-09T09:14:54;18.38;;;10.40;;
37791;SDS011;29527;55.766;37.570;2022-11-09T09:17:20;17.30;;;10.82;;
37791;SDS011;29527;55.766;37.570;2022-11-09T09:19:45;17.20;;;11.48;;
37791;SDS011;29527;55.766;37.570;2022-11-09T09:22:11;17.35;;;11.10;;
37791;SDS011;29527;55.766;37.570;2022-11-09T09:24:36;19.27;;;11.82;;
37791;SDS011;29527;55.766;37.570;2022-11-09T09:27:01;19.38;;;12.82;;
37791;SDS011;29527;55.766;37.570;2022-11-09T09:29:27;18.10;;;12.95;;
37791;SDS011;29527;55.766;37.570;2022-11-09T09:31:52;17.45;;;12.60;;
37791;SDS011;29527;55.766;37.570;2022-11-09T09:34:18;20.02;;;13.18;;
37791;SDS011;29527;55.766;37.570;2022-11-09T09:36:43;22.27;;;13.27;;
37791;SDS011;29527;55.766;37.570;2022-11-09T09:39:09;18.23;;;11.68;;
37791;SDS011;29527;55.766;37.570;2022-11-09T09:41:53;20.85;;;11.75;;
37791;SDS011;29527;55.766;37.570;2022-11-09T09:44:31;15.13;;;11.35;;
37791;SDS011;29527;55.766;37.570;2022-11-09T09:47:11;17.52;;;12.68;;
37791;SDS011;29527;55.766;37.570;2022-11-09T09:50:01;18.23;;;12.10;;
37791;SDS011;29527;55.766;37.570;2022-11-09T09:52:39;16.45;;;11.52;;
37791;SDS011;29527;55.766;37.570;2022-11-09T09:57:35;18.88;;;12.18;;
37791;SDS011;29527;55.766;37.570;2022-11-09T10:00:02;20.13;;;13.20;;
37791;SDS011;29527;55.766;37.570;2022-11-09T10:02:34;19.35;;;13.50;;
37791;SDS011;29527;55.766;37.570;2022-11-09T10:05:01;17.55;;;12.73;;
37791;SDS011;29527;55.766;37.570;2022-11-09T10:15:54;21.52;;;14.10;;
37791;SDS011;29527;55.766;37.570;2022-11-09T10:23:55;18.70;;;13.40;;
37791;SDS011;29527;55.766;37.570;2022-11-09T10:26:43;18.65;;;12.98;;
37791;SDS011;29527;55.766;37.570;2022-11-09T10:31:47;19.15;;;11.73;;
37791;SDS011;29527;55.766;37.570;2022-11-09T10:34:18;15.63;;;11.02;;
37791;SDS011;29527;55.766;37.570;2022-11-09T10:37:09;13.85;;;9.88;;
37791;SDS011;29527;55.766;37.570;2022-11-09T10:39:43;14.07;;;9.52;;
37791;SDS011;29527;55.766;37.570;2022-11-09T10:42:16;15.90;;;9.75;;
37791;SDS011;29527;55.766;37.570;2022-11-09T10:44:42;13.65;;;10.25;;
37791;SDS011;29527;55.766;37.570;2022-11-09T10:47:14;14.48;;;9.70;;
37791;SDS011;29527;55.766;37.570;2022-11-09T10:49:41;14.80;;;9.93;;
37791;SDS011;29527;55.766;37.570;2022-11-09T10:52:49;15.27;;;10.13;;
37791;SDS011;29527;55.766;37.570;2022-11-09T11:00:27;17.27;;;10.68;;
37791;SDS011;29527;55.766;37.570;2022-11-09T11:02:53;15.10;;;10.15;;
37791;SDS011;29527;55.766;37.570;2022-11-09T11:05:22;14.13;;;10.10;;
37791;SDS011;29527;55.766;37.570;2022-11-09T11:07:50;15.75;;;10.20;;
37791;SDS011;29527;55.766;37.570;2022-11-09T11:12:41;16.60;;;10.20;;
37791;SDS011;29527;55.766;37.570;2022-11-09T11:17:59;16.63;;;9.85;;
37791;SDS011;29527;55.766;37.570;2022-11-09T11:20:29;14.85;;;10.13;;
37791;SDS011;29527;55.766;37.570;2022-11-09T11:23:37;14.57;;;10.48;;
37791;SDS011;29527;55.766;37.570;2022-11-09T11:31:06;17.67;;;10.77;;
37791;SDS011;29527;55.766;37.570;2022-11-09T11:33:39;16.13;;;11.10;;
37791;SDS011;29527;55.766;37.570;2022-11-09T11:36:15;14.80;;;11.18;;
37791;SDS011;29527;55.766;37.570;2022-11-09T11:42:07;16.05;;;10.68;;
37791;SDS011;29527;55.766;37.570;2022-11-09T11:47:25;20.00;;;11.77;;
37791;SDS011;29527;55.766;37.570;2022-11-09T11:50:09;16.48;;;11.50;;
37791;SDS011;29527;55.766;37.570;2022-11-09T11:52:46;17.05;;;11.60;;
37791;SDS011;29527;55.766;37.570;2022-11-09T11:58:07;16.67;;;12.20;;
37791;SDS011;29527;55.766;37.570;2022-11-09T12:00:49;18.50;;;11.95;;
37791;SDS011;29527;55.766;37.570;2022-11-09T12:03:31;16.33;;;11.68;;
37791;SDS011;29527;55.766;37.570;2022-11-09T12:20:13;12.25;;;8.70;;
37791;SDS011;29527;55.766;37.570;2022-11-09T12:23:02;12.45;;;9.05;;
37791;SDS011;29527;55.766;37.570;2022-11-09T12:33:59;15.57;;;11.85;;
37791;SDS011;29527;55.766;37.570;2022-11-09T12:39:20;16.85;;;12.10;;
37791;SDS011;29527;55.766;37.570;2022-11-09T12:41:52;17.02;;;11.90;;
37791;SDS011;29527;55.766;37.570;2022-11-09T12:44:28;14.05;;;11.45;;
37791;SDS011;29527;55.766;37.570;2022-11-09T12:47:02;18.77;;;12.18;;
37791;SDS011;29527;55.766;37.570;2022-11-09T12:49:36;13.63;;;10.07;;
37791;SDS011;29527;55.766;37.570;2022-11-09T12:52:04;14.27;;;10.13;;
37791;SDS011;29527;55.766;37.570;2022-11-09T12:54:32;14.75;;;10.60;;
37791;SDS011;29527;55.766;37.570;2022-11-09T12:57:05;13.98;;;10.18;;
37791;SDS011;29527;55.766;37.570;2022-11-09T12:59:34;12.60;;;9.93;;
37791;SDS011;29527;55.766;37.570;2022-11-09T13:02:14;14.77;;;10.25;;
37791;SDS011;29527;55.766;37.570;2022-11-09T13:04:58;11.75;;;9.55;;
37791;SDS011;29527;55.766;37.570;2022-11-09T13:07:37;16.30;;;10.35;;
37791;SDS011;29527;55.766;37.570;2022-11-09T13:10:27;14.05;;;8.70;;
37791;SDS011;29527;55.766;37.570;2022-11-09T13:13:20;13.15;;;8.27;;
37791;SDS011;29527;55.766;37.570;2022-11-09T13:21:30;12.93;;;8.80;;
37791;SDS011;29527;55.766;37.570;2022-11-09T13:23:48;12.80;;;8.32;;
37791;SDS011;29527;55.766;37.570;2022-11-09T13:45:36;10.70;;;7.70;;
37791;SDS011;29527;55.766;37.570;2022-11-09T13:48:19;10.73;;;7.95;;
37791;SDS011;29527;55.766;37.570;2022-11-09T13:50:53;16.50;;;8.07;;
37791;SDS011;29527;55.766;37.570;2022-11-09T13:58:53;12.52;;;8.23;;
37791;SDS011;29527;55.766;37.570;2022-11-09T14:01:25;13.13;;;8.30;;
37791;SDS011;29527;55.766;37.570;2022-11-09T14:03:58;12.90;;;8.45;;
37791;SDS011;29527;55.766;37.570;2022-11-09T14:06:27;10.25;;;8.15;;
37791;SDS011;29527;55.766;37.570;2022-11-09T14:08:53;11.85;;;8.57;;
37791;SDS011;29527;55.766;37.570;2022-11-09T14:17:35;13.93;;;9.05;;
37791;SDS011;29527;55.766;37.570;2022-11-09T14:20:20;17.48;;;9.00;;
37791;SDS011;29527;55.766;37.570;2022-11-09T14:22:52;13.50;;;8.82;;
37791;SDS011;29527;55.766;37.570;2022-11-09T14:25:19;12.52;;;9.48;;
37791;SDS011;29527;55.766;37.570;2022-11-09T14:27:51;13.35;;;8.80;;
37791;SDS011;29527;55.766;37.570;2022-11-09T14:30:27;13.90;;;9.48;;
37791;SDS011;29527;55.766;37.570;2022-11-09T14:32:55;15.80;;;9.23;;
37791;SDS011;29527;55.766;37.570;2022-11-09T14:37:47;15.00;;;10.25;;
37791;SDS011;29527;55.766;37.570;2022-11-09T14:40:30;14.50;;;9.65;;
37791;SDS011;29527;55.766;37.570;2022-11-09T14:43:01;16.13;;;10.10;;
37791;SDS011;29527;55.766;37.570;2022-11-09T14:45:55;14.52;;;10.75;;
37791;SDS011;29527;55.766;37.570;2022-11-09T14:48:25;18.27;;;11.77;;
37791;SDS011;29527;55.766;37.570;2022-11-09T14:50:54;18.65;;;13.45;;
37791;SDS011;29527;55.766;37.570;2022-11-09T14:53:24;22.23;;;13.52;;
37791;SDS011;29527;55.766;37.570;2022-11-09T14:55:53;20.50;;;13.95;;
37791;SDS011;29527;55.766;37.570;2022-11-09T14:58:20;20.88;;;13.57;;
37791;SDS011;29527;55.766;37.570;2022-11-09T15:03:32;20.60;;;13.77;;
37791;SDS011;29527;55.766;37.570;2022-11-09T15:06:13;19.00;;;12.88;;
37791;SDS011;29527;55.766;37.570;2022-11-09T15:08:49;18.00;;;12.30;;
37791;SDS011;29527;55.766;37.570;2022-11-09T15:11:19;17.65;;;11.55;;
37791;SDS011;29527;55.766;37.570;2022-11-09T15:13:54;17.65;;;12.43;;
37791;SDS011;29527;55.766;37.570;2022-11-09T15:16:21;18.45;;;13.05;;
37791;SDS011;29527;55.766;37.570;2022-11-09T15:18:49;17.70;;;12.27;;
37791;SDS011;29527;55.766;37.570;2022-11-09T15:21:18;16.60;;;12.35;;
37791;SDS011;29527;55.766;37.570;2022-11-09T15:23:45;17.85;;;11.85;;
37791;SDS011;29527;55.766;37.570;2022-11-09T15:29:19;14.70;;;11.15;;
37791;SDS011;29527;55.766;37.570;2022-11-09T15:34:37;15.88;;;11.52;;
37791;SDS011;29527;55.766;37.570;2022-11-09T15:37:18;14.38;;;11.30;;
37791;SDS011;29527;55.766;37.570;2022-11-09T15:39:44;18.20;;;12.10;;
37791;SDS011;29527;55.766;37.570;2022-11-09T15:42:09;18.23;;;12.27;;
37791;SDS011;29527;55.766;37.570;2022-11-09T15:44:36;17.00;;;11.80;;
37791;SDS011;29527;55.766;37.570;2022-11-09T15:47:01;17.38;;;12.00;;
37791;SDS011;29527;55.766;37.570;2022-11-09T15:49:27;16.08;;;11.98;;
37791;SDS011;29527;55.766;37.570;2022-11-09T15:51:53;20.17;;;13.10;;
37791;SDS011;29527;55.766;37.570;2022-11-09T15:54:20;16.80;;;12.55;;
37791;SDS011;29527;55.766;37.570;2022-11-09T15:56:47;20.25;;;12.68;;
37791;SDS011;29527;55.766;37.570;2022-11-09T15:59:15;23.77;;;12.93;;
37791;SDS011;29527;55.766;37.570;2022-11-09T16:01:44;18.92;;;12.77;;
37791;SDS011;29527;55.766;37.570;2022-11-09T16:04:09;18.05;;;12.32;;
37791;SDS011;29527;55.766;37.570;2022-11-09T16:06:35;19.02;;;12.77;;
37791;SDS011;29527;55.766;37.570;2022-11-09T16:09:00;18.27;;;12.45;;
37791;SDS011;29527;55.766;37.570;2022-11-09T16:11:26;20.15;;;12.48;;
37791;SDS011;29527;55.766;37.570;2022-11-09T16:13:51;24.65;;;12.90;;
37791;SDS011;29527;55.766;37.570;2022-11-09T16:16:16;18.02;;;12.18;;
37791;SDS011;29527;55.766;37.570;2022-11-09T16:18:42;21.75;;;12.90;;